sensor_id;sensor_type;location;lat;lon;timestamp;P1;durP1;ratioP1;P2;durP2;ratioP2
68178;SDS011;54998;42.656;23.382;2023-02-28T00:00:17;27.10;;;10.00;;
68178;SDS011;54998;42.656;23.382;2023-02-28T00:02:43;28.05;;;11.07;;
68178;SDS011;54998;42.656;23.382;2023-02-28T00:05:10;29.23;;;11.45;;
68178;SDS011;54998;42.656;23.382;2023-02-28T00:07:37;29.27;;;11.05;;
68178;SDS011;54998;42.656;23.382;2023-02-28T00:10:04;30.83;;;11.70;;
68178;SDS011;54998;42.656;23.382;2023-02-28T00:12:34;25.13;;;10.95;;
68178;SDS011;54998;42.656;23.382;2023-02-28T00:15:01;33.03;;;12.20;;
68178;SDS011;54998;42.656;23.382;2023-02-28T00:17:27;31.27;;;11.93;;
68178;SDS011;54998;42.656;23.382;2023-02-28T00:19:53;32.70;;;12.60;;
68178;SDS011;54998;42.656;23.382;2023-02-28T00:22:19;36.72;;;13.13;;
68178;SDS011;54998;42.656;23.382;2023-02-28T00:24:46;35.92;;;13.48;;
68178;SDS011;54998;42.656;23.382;2023-02-28T00:27:12;29.88;;;11.98;;
68178;SDS011;54998;42.656;23.382;2023-02-28T00:29:38;33.08;;;13.13;;
68178;SDS011;54998;42.656;23.382;2023-02-28T00:32:03;33.28;;;13.70;;
68178;SDS011;54998;42.656;23.382;2023-02-28T00:34:30;34.53;;;13.20;;
68178;SDS011;54998;42.656;23.382;2023-02-28T00:36:55;33.72;;;12.38;;
68178;SDS011;54998;42.656;23.382;2023-02-28T00:39:21;31.55;;;12.05;;
68178;SDS011;54998;42.656;23.382;2023-02-28T00:41:46;33.05;;;12.55;;
68178;SDS011;54998;42.656;23.382;2023-02-28T00:44:12;32.13;;;12.82;;
68178;SDS011;54998;42.656;23.382;2023-02-28T00:46:37;32.58;;;13.27;;
68178;SDS011;54998;42.656;23.382;2023-02-28T00:49:03;33.53;;;12.70;;
68178;SDS011;54998;42.656;23.382;2023-02-28T00:51:28;32.85;;;12.25;;
68178;SDS011;54998;42.656;23.382;2023-02-28T00:53:54;32.40;;;11.40;;
68178;SDS011;54998;42.656;23.382;2023-02-28T00:56:19;29.85;;;11.70;;
68178;SDS011;54998;42.656;23.382;2023-02-28T00:58:45;26.77;;;11.18;;
68178;SDS011;54998;42.656;23.382;2023-02-28T01:01:10;32.80;;;13.20;;
68178;SDS011;54998;42.656;23.382;2023-02-28T01:03:35;31.30;;;13.27;;
68178;SDS011;54998;42.656;23.382;2023-02-28T01:06:01;37.67;;;14.20;;
68178;SDS011;54998;42.656;23.382;2023-02-28T01:08:27;33.15;;;13.15;;
68178;SDS011;54998;42.656;23.382;2023-02-28T01:10:52;34.45;;;13.60;;
68178;SDS011;54998;42.656;23.382;2023-02-28T01:13:18;39.70;;;13.95;;
68178;SDS011;54998;42.656;23.382;2023-02-28T01:15:51;36.65;;;14.00;;
68178;SDS011;54998;42.656;23.382;2023-02-28T01:18:20;34.72;;;13.40;;
68178;SDS011;54998;42.656;23.382;2023-02-28T01:20:46;32.17;;;12.85;;
68178;SDS011;54998;42.656;23.382;2023-02-28T01:23:12;33.47;;;13.18;;
68178;SDS011;54998;42.656;23.382;2023-02-28T01:25:37;36.17;;;14.98;;
68178;SDS011;54998;42.656;23.382;2023-02-28T01:28:03;35.53;;;13.68;;
68178;SDS011;54998;42.656;23.382;2023-02-28T01:30:28;32.15;;;13.70;;
68178;SDS011;54998;42.656;23.382;2023-02-28T01:32:54;33.92;;;13.13;;
68178;SDS011;54998;42.656;23.382;2023-02-28T01:35:20;32.70;;;12.93;;
68178;SDS011;54998;42.656;23.382;2023-02-28T01:37:45;39.67;;;13.32;;
68178;SDS011;54998;42.656;23.382;2023-02-28T01:40:11;36.30;;;13.95;;
68178;SDS011;54998;42.656;23.382;2023-02-28T01:42:37;34.63;;;14.07;;
68178;SDS011;54998;42.656;23.382;2023-02-28T01:47:47;33.83;;;13.63;;
68178;SDS011;54998;42.656;23.382;2023-02-28T01:50:16;35.30;;;13.95;;
68178;SDS011;54998;42.656;23.382;2023-02-28T01:52:45;35.08;;;13.43;;
68178;SDS011;54998;42.656;23.382;2023-02-28T01:55:12;36.50;;;14.05;;
68178;SDS011;54998;42.656;23.382;2023-02-28T01:57:40;33.15;;;12.93;;
68178;SDS011;54998;42.656;23.382;2023-02-28T02:00:11;34.65;;;13.52;;
68178;SDS011;54998;42.656;23.382;2023-02-28T02:02:43;36.85;;;14.25;;
68178;SDS011;54998;42.656;23.382;2023-02-28T02:05:14;32.72;;;13.15;;
68178;SDS011;54998;42.656;23.382;2023-02-28T02:07:43;40.83;;;13.57;;
68178;SDS011;54998;42.656;23.382;2023-02-28T02:10:15;35.35;;;14.10;;
68178;SDS011;54998;42.656;23.382;2023-02-28T02:15:39;36.30;;;14.27;;
68178;SDS011;54998;42.656;23.382;2023-02-28T02:18:29;36.08;;;13.60;;
68178;SDS011;54998;42.656;23.382;2023-02-28T02:21:13;37.33;;;14.93;;
68178;SDS011;54998;42.656;23.382;2023-02-28T02:39:40;44.50;;;15.38;;
68178;SDS011;54998;42.656;23.382;2023-02-28T02:44:51;40.45;;;13.73;;
68178;SDS011;54998;42.656;23.382;2023-02-28T02:47:23;39.15;;;14.15;;
68178;SDS011;54998;42.656;23.382;2023-02-28T02:49:53;42.00;;;15.30;;
68178;SDS011;54998;42.656;23.382;2023-02-28T02:52:23;42.40;;;14.95;;
68178;SDS011;54998;42.656;23.382;2023-02-28T02:54:54;42.10;;;15.77;;
68178;SDS011;54998;42.656;23.382;2023-02-28T03:00:04;41.55;;;15.50;;
68178;SDS011;54998;42.656;23.382;2023-02-28T03:02:34;35.03;;;14.88;;
68178;SDS011;54998;42.656;23.382;2023-02-28T03:05:06;38.03;;;16.33;;
68178;SDS011;54998;42.656;23.382;2023-02-28T03:07:39;40.60;;;15.45;;
68178;SDS011;54998;42.656;23.382;2023-02-28T03:10:25;42.25;;;16.55;;
68178;SDS011;54998;42.656;23.382;2023-02-28T03:13:00;43.38;;;16.38;;
68178;SDS011;54998;42.656;23.382;2023-02-28T03:15:40;45.45;;;16.92;;
68178;SDS011;54998;42.656;23.382;2023-02-28T03:18:32;42.95;;;16.67;;
68178;SDS011;54998;42.656;23.382;2023-02-28T03:23:55;53.20;;;19.48;;
68178;SDS011;54998;42.656;23.382;2023-02-28T03:26:29;50.20;;;18.80;;
68178;SDS011;54998;42.656;23.382;2023-02-28T03:29:22;50.65;;;18.80;;
68178;SDS011;54998;42.656;23.382;2023-02-28T03:31:46;53.47;;;19.13;;
68178;SDS011;54998;42.656;23.382;2023-02-28T03:34:17;46.22;;;17.75;;
68178;SDS011;54998;42.656;23.382;2023-02-28T03:36:51;48.30;;;17.77;;
68178;SDS011;54998;42.656;23.382;2023-02-28T03:39:22;45.40;;;16.50;;
68178;SDS011;54998;42.656;23.382;2023-02-28T03:41:57;54.10;;;17.33;;
68178;SDS011;54998;42.656;23.382;2023-02-28T03:47:08;49.65;;;17.52;;
68178;SDS011;54998;42.656;23.382;2023-02-28T03:49:43;67.38;;;16.42;;
68178;SDS011;54998;42.656;23.382;2023-02-28T03:52:12;54.97;;;17.58;;
68178;SDS011;54998;42.656;23.382;2023-02-28T03:54:46;86.88;;;17.50;;
68178;SDS011;54998;42.656;23.382;2023-02-28T03:57:18;61.05;;;15.93;;
68178;SDS011;54998;42.656;23.382;2023-02-28T04:00:20;47.85;;;14.82;;
68178;SDS011;54998;42.656;23.382;2023-02-28T04:02:50;48.20;;;16.60;;
68178;SDS011;54998;42.656;23.382;2023-02-28T04:05:18;56.42;;;17.65;;
68178;SDS011;54998;42.656;23.382;2023-02-28T04:07:44;52.90;;;17.88;;
68178;SDS011;54998;42.656;23.382;2023-02-28T04:10:09;53.78;;;17.38;;
68178;SDS011;54998;42.656;23.382;2023-02-28T04:12:37;56.17;;;18.27;;
68178;SDS011;54998;42.656;23.382;2023-02-28T04:15:02;56.38;;;18.35;;
68178;SDS011;54998;42.656;23.382;2023-02-28T04:17:28;49.25;;;15.43;;
68178;SDS011;54998;42.656;23.382;2023-02-28T04:19:53;53.05;;;17.27;;
68178;SDS011;54998;42.656;23.382;2023-02-28T04:22:22;51.55;;;17.90;;
68178;SDS011;54998;42.656;23.382;2023-02-28T04:24:47;51.50;;;18.27;;
68178;SDS011;54998;42.656;23.382;2023-02-28T04:27:13;52.40;;;18.13;;
68178;SDS011;54998;42.656;23.382;2023-02-28T04:29:40;49.53;;;17.00;;
68178;SDS011;54998;42.656;23.382;2023-02-28T04:32:09;43.45;;;16.73;;
68178;SDS011;54998;42.656;23.382;2023-02-28T04:34:35;45.40;;;17.42;;
68178;SDS011;54998;42.656;23.382;2023-02-28T04:37:01;52.47;;;17.40;;
68178;SDS011;54998;42.656;23.382;2023-02-28T04:39:28;52.10;;;17.45;;
68178;SDS011;54998;42.656;23.382;2023-02-28T04:41:53;52.58;;;17.05;;
68178;SDS011;54998;42.656;23.382;2023-02-28T04:44:19;52.35;;;17.13;;
68178;SDS011;54998;42.656;23.382;2023-02-28T04:46:45;51.90;;;19.23;;
68178;SDS011;54998;42.656;23.382;2023-02-28T04:49:13;88.22;;;21.88;;
68178;SDS011;54998;42.656;23.382;2023-02-28T04:51:38;64.97;;;20.40;;
68178;SDS011;54998;42.656;23.382;2023-02-28T04:54:04;65.25;;;22.73;;
68178;SDS011;54998;42.656;23.382;2023-02-28T04:56:29;72.97;;;25.27;;
68178;SDS011;54998;42.656;23.382;2023-02-28T04:58:55;78.82;;;23.60;;
68178;SDS011;54998;42.656;23.382;2023-02-28T05:03:54;79.57;;;21.92;;
68178;SDS011;54998;42.656;23.382;2023-02-28T05:06:21;73.32;;;21.95;;
68178;SDS011;54998;42.656;23.382;2023-02-28T05:08:48;68.13;;;22.05;;
68178;SDS011;54998;42.656;23.382;2023-02-28T05:11:21;74.00;;;23.35;;
68178;SDS011;54998;42.656;23.382;2023-02-28T05:13:50;66.50;;;20.42;;
68178;SDS011;54998;42.656;23.382;2023-02-28T05:16:17;70.00;;;24.10;;
68178;SDS011;54998;42.656;23.382;2023-02-28T05:18:43;72.60;;;21.70;;
68178;SDS011;54998;42.656;23.382;2023-02-28T05:21:23;71.35;;;20.88;;
68178;SDS011;54998;42.656;23.382;2023-02-28T05:23:54;62.50;;;20.08;;
68178;SDS011;54998;42.656;23.382;2023-02-28T05:26:21;68.93;;;20.05;;
68178;SDS011;54998;42.656;23.382;2023-02-28T05:28:46;98.85;;;22.48;;
68178;SDS011;54998;42.656;23.382;2023-02-28T05:31:12;64.82;;;19.88;;
68178;SDS011;54998;42.656;23.382;2023-02-28T05:33:38;70.22;;;20.52;;
68178;SDS011;54998;42.656;23.382;2023-02-28T05:36:04;87.68;;;20.98;;
68178;SDS011;54998;42.656;23.382;2023-02-28T05:38:33;60.20;;;19.98;;
68178;SDS011;54998;42.656;23.382;2023-02-28T05:40:58;63.15;;;20.77;;
68178;SDS011;54998;42.656;23.382;2023-02-28T05:43:24;69.13;;;20.75;;
68178;SDS011;54998;42.656;23.382;2023-02-28T05:45:49;70.18;;;20.27;;
68178;SDS011;54998;42.656;23.382;2023-02-28T05:48:14;64.00;;;20.92;;
68178;SDS011;54998;42.656;23.382;2023-02-28T05:50:40;62.50;;;19.77;;
68178;SDS011;54998;42.656;23.382;2023-02-28T05:53:07;60.10;;;18.50;;
68178;SDS011;54998;42.656;23.382;2023-02-28T05:55:33;68.53;;;20.95;;
68178;SDS011;54998;42.656;23.382;2023-02-28T05:58:00;58.20;;;18.63;;
68178;SDS011;54998;42.656;23.382;2023-02-28T06:00:26;56.45;;;19.80;;
68178;SDS011;54998;42.656;23.382;2023-02-28T06:02:52;58.50;;;19.73;;
68178;SDS011;54998;42.656;23.382;2023-02-28T06:05:21;49.85;;;18.23;;
68178;SDS011;54998;42.656;23.382;2023-02-28T06:07:47;48.35;;;17.65;;
68178;SDS011;54998;42.656;23.382;2023-02-28T06:10:12;55.85;;;20.25;;
68178;SDS011;54998;42.656;23.382;2023-02-28T06:12:38;50.45;;;18.27;;
68178;SDS011;54998;42.656;23.382;2023-02-28T06:15:06;54.30;;;19.00;;
68178;SDS011;54998;42.656;23.382;2023-02-28T06:17:32;53.25;;;18.73;;
68178;SDS011;54998;42.656;23.382;2023-02-28T06:19:58;53.40;;;18.17;;
68178;SDS011;54998;42.656;23.382;2023-02-28T06:22:23;52.33;;;18.33;;
68178;SDS011;54998;42.656;23.382;2023-02-28T06:24:48;60.15;;;21.38;;
68178;SDS011;54998;42.656;23.382;2023-02-28T06:27:14;58.63;;;21.90;;
68178;SDS011;54998;42.656;23.382;2023-02-28T06:29:39;60.90;;;19.25;;
68178;SDS011;54998;42.656;23.382;2023-02-28T06:32:05;59.00;;;19.63;;
68178;SDS011;54998;42.656;23.382;2023-02-28T06:34:33;65.60;;;22.38;;
68178;SDS011;54998;42.656;23.382;2023-02-28T06:37:01;60.28;;;22.33;;
68178;SDS011;54998;42.656;23.382;2023-02-28T06:39:27;58.65;;;21.65;;
68178;SDS011;54998;42.656;23.382;2023-02-28T06:41:53;53.00;;;20.05;;
68178;SDS011;54998;42.656;23.382;2023-02-28T06:44:18;52.08;;;19.85;;
68178;SDS011;54998;42.656;23.382;2023-02-28T06:46:44;53.85;;;22.73;;
68178;SDS011;54998;42.656;23.382;2023-02-28T06:49:10;48.85;;;20.67;;
68178;SDS011;54998;42.656;23.382;2023-02-28T06:51:40;53.55;;;21.88;;
68178;SDS011;54998;42.656;23.382;2023-02-28T06:54:08;51.05;;;21.75;;
68178;SDS011;54998;42.656;23.382;2023-02-28T06:56:34;49.17;;;19.55;;
68178;SDS011;54998;42.656;23.382;2023-02-28T06:59:00;48.20;;;18.80;;
68178;SDS011;54998;42.656;23.382;2023-02-28T07:01:25;45.53;;;20.58;;
68178;SDS011;54998;42.656;23.382;2023-02-28T07:03:52;47.63;;;20.20;;
68178;SDS011;54998;42.656;23.382;2023-02-28T07:06:21;47.55;;;20.65;;
68178;SDS011;54998;42.656;23.382;2023-02-28T07:08:50;45.92;;;20.25;;
68178;SDS011;54998;42.656;23.382;2023-02-28T07:11:19;46.53;;;19.73;;
68178;SDS011;54998;42.656;23.382;2023-02-28T07:13:47;42.17;;;18.10;;
68178;SDS011;54998;42.656;23.382;2023-02-28T07:16:13;38.55;;;17.58;;
68178;SDS011;54998;42.656;23.382;2023-02-28T07:18:38;39.95;;;18.42;;
68178;SDS011;54998;42.656;23.382;2023-02-28T07:21:05;39.65;;;16.58;;
68178;SDS011;54998;42.656;23.382;2023-02-28T07:23:32;37.00;;;16.40;;
68178;SDS011;54998;42.656;23.382;2023-02-28T07:25:58;40.13;;;16.48;;
68178;SDS011;54998;42.656;23.382;2023-02-28T07:28:24;37.53;;;15.40;;
68178;SDS011;54998;42.656;23.382;2023-02-28T07:30:49;34.17;;;14.15;;
68178;SDS011;54998;42.656;23.382;2023-02-28T07:33:15;29.25;;;12.27;;
68178;SDS011;54998;42.656;23.382;2023-02-28T07:35:41;34.80;;;13.70;;
68178;SDS011;54998;42.656;23.382;2023-02-28T07:38:06;29.38;;;13.07;;
68178;SDS011;54998;42.656;23.382;2023-02-28T07:40:35;31.67;;;13.15;;
68178;SDS011;54998;42.656;23.382;2023-02-28T07:43:01;27.50;;;12.95;;
68178;SDS011;54998;42.656;23.382;2023-02-28T07:45:28;31.50;;;13.70;;
68178;SDS011;54998;42.656;23.382;2023-02-28T07:50:20;36.47;;;13.98;;
68178;SDS011;54998;42.656;23.382;2023-02-28T07:52:46;31.65;;;13.38;;
68178;SDS011;54998;42.656;23.382;2023-02-28T07:55:11;32.72;;;14.05;;
68178;SDS011;54998;42.656;23.382;2023-02-28T07:57:38;25.73;;;11.63;;
68178;SDS011;54998;42.656;23.382;2023-02-28T08:00:04;32.03;;;13.05;;
68178;SDS011;54998;42.656;23.382;2023-02-28T08:02:32;31.33;;;13.30;;
68178;SDS011;54998;42.656;23.382;2023-02-28T08:05:00;30.02;;;14.60;;
68178;SDS011;54998;42.656;23.382;2023-02-28T08:07:26;31.50;;;13.88;;
68178;SDS011;54998;42.656;23.382;2023-02-28T08:09:51;32.97;;;13.95;;
68178;SDS011;54998;42.656;23.382;2023-02-28T08:12:17;34.55;;;13.48;;
68178;SDS011;54998;42.656;23.382;2023-02-28T08:14:43;30.63;;;13.70;;
68178;SDS011;54998;42.656;23.382;2023-02-28T08:17:09;27.88;;;13.15;;
68178;SDS011;54998;42.656;23.382;2023-02-28T08:19:35;26.38;;;11.82;;
68178;SDS011;54998;42.656;23.382;2023-02-28T08:22:01;31.95;;;12.93;;
68178;SDS011;54998;42.656;23.382;2023-02-28T08:24:27;30.73;;;12.38;;
68178;SDS011;54998;42.656;23.382;2023-02-28T08:26:52;28.90;;;10.23;;
68178;SDS011;54998;42.656;23.382;2023-02-28T08:29:18;27.40;;;10.98;;
68178;SDS011;54998;42.656;23.382;2023-02-28T08:31:43;32.00;;;11.68;;
68178;SDS011;54998;42.656;23.382;2023-02-28T08:34:09;25.17;;;10.73;;
68178;SDS011;54998;42.656;23.382;2023-02-28T08:36:37;30.08;;;10.65;;
68178;SDS011;54998;42.656;23.382;2023-02-28T08:39:03;25.15;;;11.43;;
68178;SDS011;54998;42.656;23.382;2023-02-28T08:41:29;29.98;;;11.10;;
68178;SDS011;54998;42.656;23.382;2023-02-28T08:43:54;29.13;;;10.85;;
68178;SDS011;54998;42.656;23.382;2023-02-28T08:46:20;28.08;;;11.48;;
68178;SDS011;54998;42.656;23.382;2023-02-28T08:48:46;24.17;;;10.15;;
68178;SDS011;54998;42.656;23.382;2023-02-28T08:51:12;20.38;;;8.93;;
68178;SDS011;54998;42.656;23.382;2023-02-28T08:53:47;26.58;;;9.95;;
68178;SDS011;54998;42.656;23.382;2023-02-28T08:56:14;25.63;;;10.18;;
68178;SDS011;54998;42.656;23.382;2023-02-28T08:58:41;26.02;;;10.23;;
68178;SDS011;54998;42.656;23.382;2023-02-28T09:01:10;33.30;;;10.63;;
68178;SDS011;54998;42.656;23.382;2023-02-28T09:03:40;25.25;;;10.23;;
68178;SDS011;54998;42.656;23.382;2023-02-28T09:06:10;24.65;;;10.80;;
68178;SDS011;54998;42.656;23.382;2023-02-28T09:08:37;28.55;;;11.13;;
68178;SDS011;54998;42.656;23.382;2023-02-28T09:11:03;23.23;;;10.32;;
68178;SDS011;54998;42.656;23.382;2023-02-28T09:13:29;26.58;;;10.40;;
68178;SDS011;54998;42.656;23.382;2023-02-28T09:15:57;26.48;;;10.27;;
68178;SDS011;54998;42.656;23.382;2023-02-28T09:18:24;27.00;;;10.55;;
68178;SDS011;54998;42.656;23.382;2023-02-28T09:20:50;27.60;;;11.65;;
68178;SDS011;54998;42.656;23.382;2023-02-28T09:23:15;24.92;;;10.77;;
68178;SDS011;54998;42.656;23.382;2023-02-28T09:25:45;26.02;;;11.10;;
68178;SDS011;54998;42.656;23.382;2023-02-28T09:28:12;25.45;;;9.15;;
68178;SDS011;54998;42.656;23.382;2023-02-28T09:30:37;29.40;;;11.75;;
68178;SDS011;54998;42.656;23.382;2023-02-28T09:33:03;25.83;;;9.75;;
68178;SDS011;54998;42.656;23.382;2023-02-28T09:35:29;28.88;;;10.32;;
68178;SDS011;54998;42.656;23.382;2023-02-28T09:37:55;26.80;;;10.52;;
68178;SDS011;54998;42.656;23.382;2023-02-28T09:40:22;22.80;;;8.68;;
68178;SDS011;54998;42.656;23.382;2023-02-28T09:42:50;24.70;;;9.55;;
68178;SDS011;54998;42.656;23.382;2023-02-28T09:47:43;17.63;;;8.20;;
68178;SDS011;54998;42.656;23.382;2023-02-28T09:50:17;22.88;;;9.48;;
68178;SDS011;54998;42.656;23.382;2023-02-28T09:52:43;18.38;;;6.43;;
68178;SDS011;54998;42.656;23.382;2023-02-28T09:55:22;16.75;;;7.25;;
68178;SDS011;54998;42.656;23.382;2023-02-28T09:57:58;11.07;;;4.75;;
68178;SDS011;54998;42.656;23.382;2023-02-28T10:00:37;24.58;;;8.15;;
68178;SDS011;54998;42.656;23.382;2023-02-28T10:11:23;13.57;;;5.00;;
68178;SDS011;54998;42.656;23.382;2023-02-28T10:13:53;16.27;;;6.65;;
68178;SDS011;54998;42.656;23.382;2023-02-28T10:24:35;23.48;;;7.25;;
68178;SDS011;54998;42.656;23.382;2023-02-28T10:27:22;16.60;;;5.43;;
68178;SDS011;54998;42.656;23.382;2023-02-28T10:29:52;19.35;;;7.53;;
68178;SDS011;54998;42.656;23.382;2023-02-28T10:32:20;21.17;;;8.43;;
68178;SDS011;54998;42.656;23.382;2023-02-28T10:34:59;19.80;;;8.38;;
68178;SDS011;54998;42.656;23.382;2023-02-28T10:37:31;16.80;;;7.00;;
68178;SDS011;54998;42.656;23.382;2023-02-28T10:39:57;22.02;;;7.97;;
68178;SDS011;54998;42.656;23.382;2023-02-28T10:42:26;20.45;;;7.38;;
68178;SDS011;54998;42.656;23.382;2023-02-28T10:58:31;22.75;;;8.50;;
68178;SDS011;54998;42.656;23.382;2023-02-28T11:01:52;16.88;;;6.30;;
68178;SDS011;54998;42.656;23.382;2023-02-28T11:07:01;19.48;;;8.27;;
68178;SDS011;54998;42.656;23.382;2023-02-28T11:09:36;15.00;;;6.32;;
68178;SDS011;54998;42.656;23.382;2023-02-28T11:12:05;16.23;;;6.40;;
68178;SDS011;54998;42.656;23.382;2023-02-28T11:14:35;15.90;;;6.32;;
68178;SDS011;54998;42.656;23.382;2023-02-28T11:17:23;16.02;;;6.30;;
68178;SDS011;54998;42.656;23.382;2023-02-28T11:19:55;18.17;;;6.35;;
68178;SDS011;54998;42.656;23.382;2023-02-28T11:22:24;14.20;;;5.78;;
68178;SDS011;54998;42.656;23.382;2023-02-28T11:24:54;20.25;;;8.48;;
68178;SDS011;54998;42.656;23.382;2023-02-28T11:29:59;18.02;;;8.00;;
68178;SDS011;54998;42.656;23.382;2023-02-28T11:32:26;18.30;;;6.55;;
68178;SDS011;54998;42.656;23.382;2023-02-28T11:35:00;25.52;;;9.60;;
68178;SDS011;54998;42.656;23.382;2023-02-28T11:37:50;19.70;;;7.75;;
68178;SDS011;54998;42.656;23.382;2023-02-28T11:40:16;16.73;;;6.97;;
68178;SDS011;54998;42.656;23.382;2023-02-28T11:48:11;21.75;;;9.95;;
68178;SDS011;54998;42.656;23.382;2023-02-28T11:50:48;23.55;;;9.40;;
68178;SDS011;54998;42.656;23.382;2023-02-28T11:53:50;20.42;;;6.68;;
68178;SDS011;54998;42.656;23.382;2023-02-28T12:04:53;23.23;;;9.05;;
68178;SDS011;54998;42.656;23.382;2023-02-28T12:10:30;23.17;;;9.95;;
68178;SDS011;54998;42.656;23.382;2023-02-28T12:13:18;10.65;;;3.63;;
68178;SDS011;54998;42.656;23.382;2023-02-28T12:15:52;12.93;;;5.88;;
68178;SDS011;54998;42.656;23.382;2023-02-28T12:23:56;23.10;;;9.38;;
68178;SDS011;54998;42.656;23.382;2023-02-28T12:29:19;26.27;;;9.63;;
68178;SDS011;54998;42.656;23.382;2023-02-28T12:31:56;20.13;;;8.27;;
68178;SDS011;54998;42.656;23.382;2023-02-28T12:34:38;23.88;;;6.32;;
68178;SDS011;54998;42.656;23.382;2023-02-28T12:40:05;16.20;;;5.72;;
68178;SDS011;54998;42.656;23.382;2023-02-28T12:42:38;15.65;;;6.03;;
68178;SDS011;54998;42.656;23.382;2023-02-28T12:45:13;13.27;;;5.50;;
68178;SDS011;54998;42.656;23.382;2023-02-28T12:47:44;19.88;;;6.55;;
68178;SDS011;54998;42.656;23.382;2023-02-28T12:50:13;12.10;;;4.80;;
68178;SDS011;54998;42.656;23.382;2023-02-28T12:55:33;12.80;;;6.05;;
68178;SDS011;54998;42.656;23.382;2023-02-28T13:09:13;17.17;;;6.22;;
68178;SDS011;54998;42.656;23.382;2023-02-28T13:11:44;19.25;;;8.13;;
68178;SDS011;54998;42.656;23.382;2023-02-28T13:14:25;19.15;;;8.80;;
68178;SDS011;54998;42.656;23.382;2023-02-28T13:17:02;23.30;;;8.30;;
68178;SDS011;54998;42.656;23.382;2023-02-28T13:19:37;19.20;;;7.72;;
68178;SDS011;54998;42.656;23.382;2023-02-28T13:22:04;18.65;;;7.63;;
68178;SDS011;54998;42.656;23.382;2023-02-28T13:27:24;21.27;;;7.38;;
68178;SDS011;54998;42.656;23.382;2023-02-28T13:30:01;18.05;;;6.95;;
68178;SDS011;54998;42.656;23.382;2023-02-28T13:32:46;15.70;;;6.35;;
68178;SDS011;54998;42.656;23.382;2023-02-28T13:38:44;18.80;;;7.20;;
68178;SDS011;54998;42.656;23.382;2023-02-28T13:44:04;16.65;;;7.38;;
68178;SDS011;54998;42.656;23.382;2023-02-28T13:49:27;16.63;;;6.80;;
68178;SDS011;54998;42.656;23.382;2023-02-28T13:57:46;14.88;;;6.35;;
68178;SDS011;54998;42.656;23.382;2023-02-28T14:08:47;21.75;;;7.82;;
68178;SDS011;54998;42.656;23.382;2023-02-28T14:11:52;15.25;;;6.43;;
68178;SDS011;54998;42.656;23.382;2023-02-28T14:17:07;16.50;;;7.25;;
68178;SDS011;54998;42.656;23.382;2023-02-28T14:19:39;20.48;;;7.30;;
68178;SDS011;54998;42.656;23.382;2023-02-28T14:22:56;19.02;;;7.30;;
68178;SDS011;54998;42.656;23.382;2023-02-28T14:27:43;21.98;;;7.03;;
68178;SDS011;54998;42.656;23.382;2023-02-28T14:32:58;18.35;;;5.70;;
68178;SDS011;54998;42.656;23.382;2023-02-28T14:35:45;27.35;;;7.40;;
68178;SDS011;54998;42.656;23.382;2023-02-28T14:38:32;19.65;;;7.15;;
68178;SDS011;54998;42.656;23.382;2023-02-28T14:41:12;19.88;;;7.78;;
68178;SDS011;54998;42.656;23.382;2023-02-28T14:43:53;18.55;;;6.68;;
68178;SDS011;54998;42.656;23.382;2023-02-28T14:46:28;18.88;;;7.35;;
68178;SDS011;54998;42.656;23.382;2023-02-28T14:49:01;15.90;;;6.38;;
68178;SDS011;54998;42.656;23.382;2023-02-28T14:51:28;15.02;;;6.57;;
68178;SDS011;54998;42.656;23.382;2023-02-28T14:53:57;16.80;;;5.85;;
68178;SDS011;54998;42.656;23.382;2023-02-28T14:56:35;16.92;;;6.40;;
68178;SDS011;54998;42.656;23.382;2023-02-28T14:59:02;13.50;;;5.82;;
68178;SDS011;54998;42.656;23.382;2023-02-28T15:01:29;21.48;;;7.47;;
68178;SDS011;54998;42.656;23.382;2023-02-28T15:04:03;21.70;;;7.32;;
68178;SDS011;54998;42.656;23.382;2023-02-28T15:06:30;19.95;;;6.63;;
68178;SDS011;54998;42.656;23.382;2023-02-28T15:11:44;15.65;;;5.20;;
68178;SDS011;54998;42.656;23.382;2023-02-28T15:14:17;11.63;;;4.95;;
68178;SDS011;54998;42.656;23.382;2023-02-28T15:16:45;17.35;;;6.50;;
68178;SDS011;54998;42.656;23.382;2023-02-28T15:22:05;19.10;;;5.32;;
68178;SDS011;54998;42.656;23.382;2023-02-28T15:24:36;14.13;;;4.45;;
68178;SDS011;54998;42.656;23.382;2023-02-28T15:27:05;12.23;;;4.05;;
68178;SDS011;54998;42.656;23.382;2023-02-28T15:29:41;13.32;;;4.65;;
68178;SDS011;54998;42.656;23.382;2023-02-28T15:32:20;11.05;;;4.47;;
68178;SDS011;54998;42.656;23.382;2023-02-28T15:34:52;10.80;;;4.40;;
68178;SDS011;54998;42.656;23.382;2023-02-28T15:40:13;13.20;;;4.65;;
68178;SDS011;54998;42.656;23.382;2023-02-28T15:42:38;9.85;;;4.65;;
68178;SDS011;54998;42.656;23.382;2023-02-28T15:45:04;11.50;;;5.03;;
68178;SDS011;54998;42.656;23.382;2023-02-28T15:47:30;8.88;;;3.60;;
68178;SDS011;54998;42.656;23.382;2023-02-28T15:50:00;7.15;;;2.83;;
68178;SDS011;54998;42.656;23.382;2023-02-28T15:52:34;9.38;;;4.55;;
68178;SDS011;54998;42.656;23.382;2023-02-28T15:55:22;14.85;;;6.22;;
68178;SDS011;54998;42.656;23.382;2023-02-28T15:57:53;9.38;;;4.40;;
68178;SDS011;54998;42.656;23.382;2023-02-28T16:00:23;7.95;;;2.83;;
68178;SDS011;54998;42.656;23.382;2023-02-28T16:02:50;10.88;;;4.47;;
68178;SDS011;54998;42.656;23.382;2023-02-28T16:07:53;16.48;;;4.97;;
68178;SDS011;54998;42.656;23.382;2023-02-28T16:10:20;14.80;;;6.47;;
68178;SDS011;54998;42.656;23.382;2023-02-28T16:12:48;14.30;;;5.63;;
68178;SDS011;54998;42.656;23.382;2023-02-28T16:15:18;13.10;;;5.82;;
68178;SDS011;54998;42.656;23.382;2023-02-28T16:17:54;12.95;;;5.00;;
68178;SDS011;54998;42.656;23.382;2023-02-28T16:20:30;11.35;;;5.13;;
68178;SDS011;54998;42.656;23.382;2023-02-28T16:22:55;12.65;;;4.65;;
68178;SDS011;54998;42.656;23.382;2023-02-28T16:25:23;10.93;;;5.15;;
68178;SDS011;54998;42.656;23.382;2023-02-28T16:27:53;13.00;;;5.63;;
68178;SDS011;54998;42.656;23.382;2023-02-28T16:30:21;7.53;;;3.53;;
68178;SDS011;54998;42.656;23.382;2023-02-28T16:32:51;5.85;;;2.75;;
68178;SDS011;54998;42.656;23.382;2023-02-28T16:35:18;9.88;;;4.47;;
68178;SDS011;54998;42.656;23.382;2023-02-28T16:37:44;12.07;;;4.88;;
68178;SDS011;54998;42.656;23.382;2023-02-28T16:40:20;13.20;;;4.60;;
68178;SDS011;54998;42.656;23.382;2023-02-28T16:42:51;10.25;;;5.50;;
68178;SDS011;54998;42.656;23.382;2023-02-28T16:45:22;12.38;;;4.43;;
68178;SDS011;54998;42.656;23.382;2023-02-28T16:47:49;7.22;;;3.58;;
68178;SDS011;54998;42.656;23.382;2023-02-28T16:50:20;5.45;;;3.00;;
68178;SDS011;54998;42.656;23.382;2023-02-28T16:52:47;9.50;;;3.47;;
68178;SDS011;54998;42.656;23.382;2023-02-28T16:55:14;11.20;;;4.35;;
68178;SDS011;54998;42.656;23.382;2023-02-28T16:57:40;10.93;;;4.53;;
68178;SDS011;54998;42.656;23.382;2023-02-28T17:00:06;7.57;;;3.17;;
68178;SDS011;54998;42.656;23.382;2023-02-28T17:02:33;8.30;;;3.65;;
68178;SDS011;54998;42.656;23.382;2023-02-28T17:04:59;5.05;;;2.28;;
68178;SDS011;54998;42.656;23.382;2023-02-28T17:07:25;9.68;;;3.25;;
68178;SDS011;54998;42.656;23.382;2023-02-28T17:09:50;7.05;;;2.85;;